Aviation Digital Data Service (ADDS)

Output produced by METARs form (0046 UTC 24 May 2022)
found at http://www.aviationweather.gov/metar/data/
 
LJLJ 240030Z 30004KT 260V320 9999 FEW033 BKN050 17/16 Q1008 NOSIG
TAF LJLJ 232300Z 2400/2500 VRB02KT 9999 SCT050 
     TEMPO 2409/2416 24012KT
       
LJMB 240030Z AUTO 01003KT 9999 FEW032/// SCT074/// 17/14 Q1007
TAF LJMB 232300Z 2400/2500 VRB02KT CAVOK 
     BECMG 2409/2411 20010KT 
     BECMG 2423/2500 36010KT
       
LJPZ 240030Z AUTO 11009KT 080V150 9999 NCD 22/15 Q1006
TAF LJPZ 232300Z 2400/2409 13005KT CAVOK 
     TEMPO 2401/2409 17015KT